Time;durP1;ratioP1;P1;durP2;ratioP2;P2;SDS_P1;SDS_P2;PMS_P1;PMS_P2;Temp;Humidity;BMP_temperature;BMP_pressure;BME280_temperature;BME280_humidity;BME280_pressure;Samples;Min_cycle;Max_cycle;Signal;HPM_P1;HPM_P2
2023/06/02 00:02:16;;;;;;;12.35;4.53;;;;;;;13.44;55.32;99234.72;5033737;28;20036;-55
2023/06/02 00:04:42;;;;;;;10.82;3.88;;;;;;;13.57;55.30;99261.22;5033770;28;20056;-52
2023/06/02 00:07:08;;;;;;;8.52;3.83;;;;;;;13.49;55.35;99256.59;5050210;28;20033;-53
2023/06/02 00:09:38;;;;;;;9.95;3.92;;;;;;;13.53;55.57;99275.13;5051288;28;20033;-54
2023/06/02 00:12:04;;;;;;;11.15;3.63;;;;;;;13.42;55.73;99265.44;5050864;28;20087;-63
2023/06/02 00:14:30;;;;;;;12.20;3.85;;;;;;;13.42;55.40;99262.72;5050465;28;20033;-52
2023/06/02 00:16:57;;;;;;;14.38;3.78;;;;;;;13.37;55.24;99257.00;5051133;28;20152;-51
2023/06/02 00:19:23;;;;;;;12.85;3.47;;;;;;;13.39;55.54;99274.66;5051522;28;20085;-54
2023/06/02 00:21:51;;;;;;;9.82;3.90;;;;;;;13.26;55.50;99252.69;5051514;28;20130;-51
2023/06/02 00:24:19;;;;;;;12.25;4.53;;;;;;;13.16;55.47;99248.25;5050651;28;20037;-59
2023/06/02 00:26:44;;;;;;;11.07;3.55;;;;;;;13.22;55.57;99249.47;5033405;28;20419;-57
2023/06/02 00:29:10;;;;;;;10.10;3.83;;;;;;;13.10;55.54;99237.28;5050219;28;20045;-56
2023/06/02 00:31:35;;;;;;;11.88;3.60;;;;;;;13.20;55.86;99254.16;5049397;28;20052;-54
2023/06/02 00:34:01;;;;;;;13.23;4.13;;;;;;;13.16;55.90;99260.84;5051085;28;20349;-53
2023/06/02 00:36:26;;;;;;;16.67;4.28;;;;;;;13.14;55.82;99254.78;5050019;28;20025;-52
2023/06/02 00:38:52;;;;;;;12.00;4.03;;;;;;;13.06;56.14;99248.34;5033801;28;20033;-55
2023/06/02 00:41:17;;;;;;;15.13;3.60;;;;;;;13.06;56.11;99253.72;5033156;28;20032;-57
2023/06/02 00:43:43;;;;;;;13.40;4.20;;;;;;;13.04;56.10;99263.78;5051393;28;20032;-58
2023/06/02 00:46:08;;;;;;;13.60;3.67;;;;;;;12.85;56.71;99226.31;5050728;28;20039;-55
2023/06/02 00:48:34;;;;;;;12.88;3.67;;;;;;;12.95;56.01;99247.72;5049376;28;20403;-58
2023/06/02 00:51:00;;;;;;;12.20;4.05;;;;;;;12.76;56.24;99214.63;5050789;28;20132;-57
2023/06/02 00:53:26;;;;;;;13.65;4.10;;;;;;;12.72;56.21;99221.31;5051680;28;20467;-54
2023/06/02 00:55:52;;;;;;;19.00;4.28;;;;;;;12.90;56.41;99258.94;5053848;28;20104;-53
2023/06/02 00:58:19;;;;;;;12.00;3.95;;;;;;;12.88;56.24;99259.06;5054758;28;20116;-52
2023/06/02 01:00:47;;;;;;;11.32;3.85;;;;;;;12.89;56.63;99259.94;5053494;28;20079;-54
2023/06/02 01:03:16;;;;;;;16.50;4.38;;;;;;;12.87;56.53;99264.63;5054461;28;20036;-53
2023/06/02 01:05:44;;;;;;;18.10;4.40;;;;;;;12.86;56.70;99265.63;5053856;28;20357;-56
2023/06/02 01:08:12;;;;;;;13.32;3.70;;;;;;;12.83;56.39;99274.81;5053733;28;20033;-53
2023/06/02 01:10:38;;;;;;;12.00;3.60;;;;;;;12.84;56.07;99276.50;5054483;28;20044;-55
2023/06/02 01:13:04;;;;;;;9.55;4.00;;;;;;;12.84;56.33;99265.75;5050806;28;20029;-54
2023/06/02 01:15:30;;;;;;;10.77;4.25;;;;;;;12.84;55.76;99267.59;5054746;28;20359;-51
2023/06/02 01:17:57;;;;;;;10.63;4.07;;;;;;;12.87;55.72;99278.88;5055139;28;20139;-57
2023/06/02 01:20:23;;;;;;;18.02;3.80;;;;;;;12.31;55.75;99181.47;5053811;28;20419;-58
2023/06/02 01:23:08;;;;;;;7.93;3.33;;;;;;;12.93;55.93;99285.50;5052817;28;20041;-55
2023/06/02 01:25:36;;;;;;;5.85;3.28;;;;;;;12.63;55.94;99237.34;5054005;28;20423;-55
2023/06/02 01:28:04;;;;;;;10.13;3.72;;;;;;;12.88;56.20;99287.78;5054816;28;20056;-60
2023/06/02 01:30:31;;;;;;;11.95;3.53;;;;;;;12.84;56.10;99275.66;5054900;28;20033;-54
2023/06/02 01:33:05;;;;;;;10.15;3.33;;;;;;;12.92;56.06;99279.28;5053576;28;20069;-50
2023/06/02 01:35:37;;;;;;;6.72;3.25;;;;;;;12.95;55.97;99288.88;5053071;28;20048;-52
2023/06/02 01:38:05;;;;;;;11.38;3.55;;;;;;;12.97;56.28;99288.72;5050351;28;20033;-51
2023/06/02 01:40:31;;;;;;;7.57;3.55;;;;;;;12.86;56.29;99262.94;5053706;28;20032;-55
2023/06/02 01:42:58;;;;;;;10.95;3.70;;;;;;;13.05;55.92;99284.28;5053586;28;20117;-54
2023/06/02 01:45:24;;;;;;;10.20;3.25;;;;;;;13.09;55.47;99278.59;5053176;28;20384;-58
2023/06/02 01:47:50;;;;;;;10.73;3.60;;;;;;;13.13;55.47;99279.97;5054220;28;20055;-53
2023/06/02 01:50:15;;;;;;;8.15;3.60;;;;;;;13.13;55.13;99272.75;5053556;28;20112;-64
2023/06/02 01:52:41;;;;;;;12.77;3.08;;;;;;;13.19;54.96;99266.75;5053179;28;20534;-54
2023/06/02 01:55:07;;;;;;;9.50;3.42;;;;;;;13.32;55.03;99285.19;5053125;28;20404;-56
2023/06/02 01:57:34;;;;;;;8.55;3.42;;;;;;;13.39;55.21;99287.25;5054139;28;20102;-64
2023/06/02 02:00:00;;;;;;;8.25;3.38;;;;;;;13.23;54.82;99240.41;5053469;28;20064;-55
2023/06/02 02:02:25;;;;;;;10.35;3.42;;;;;;;13.55;54.61;99279.34;5048654;28;20056;-53
2023/06/02 02:04:51;;;;;;;11.88;3.30;;;;;;;13.62;54.38;99283.09;5047895;28;20024;-55
2023/06/02 02:07:19;;;;;;;6.70;3.17;;;;;;;13.71;54.49;99283.13;5051322;28;20062;-53
2023/06/02 02:09:46;;;;;;;7.88;3.20;;;;;;;13.82;54.10;99290.97;5053601;28;20052;-53
2023/06/02 02:12:12;;;;;;;12.95;3.30;;;;;;;13.95;53.28;99285.16;5052302;28;20021;-55
2023/06/02 02:14:37;;;;;;;10.75;3.60;;;;;;;14.14;52.94;99284.06;5052268;28;20095;-57
2023/06/02 02:17:03;;;;;;;11.55;3.92;;;;;;;14.41;52.26;99284.03;5053905;28;20032;-56
2023/06/02 02:19:31;;;;;;;7.00;3.28;;;;;;;14.69;51.62;99292.72;5052610;28;20044;-53
2023/06/02 02:21:57;;;;;;;8.85;3.40;;;;;;;14.88;50.26;99264.69;5052730;28;20056;-53
2023/06/02 02:24:23;;;;;;;14.77;3.60;;;;;;;15.37;49.67;99276.50;5052766;28;20399;-56
2023/06/02 02:26:48;;;;;;;15.65;3.40;;;;;;;15.79;48.69;99288.97;5052299;28;20032;-51
2023/06/02 02:29:14;;;;;;;6.78;3.20;;;;;;;16.25;47.43;99286.69;5053045;28;20036;-54
2023/06/02 02:31:39;;;;;;;17.05;2.90;;;;;;;16.68;45.50;99284.47;5052841;28;20484;-52
2023/06/02 02:34:05;;;;;;;6.55;2.55;;;;;;;17.17;44.90;99296.03;5052916;28;20032;-63
2023/06/02 02:36:32;;;;;;;6.10;3.08;;;;;;;17.41;43.08;99284.16;5053933;28;20059;-53
2023/06/02 02:38:58;;;;;;;7.03;2.55;;;;;;;17.40;41.83;99262.72;5034945;28;20033;-56
2023/06/02 02:41:23;;;;;;;6.63;2.60;;;;;;;17.57;40.83;99290.47;5051945;28;20036;-56
2023/06/02 02:43:49;;;;;;;7.20;2.40;;;;;;;17.46;40.95;99284.47;5052259;28;20036;-52
2023/06/02 02:46:15;;;;;;;5.63;2.63;;;;;;;17.30;40.92;99290.84;5053530;28;20130;-55
2023/06/02 02:48:41;;;;;;;11.85;2.35;;;;;;;17.19;41.05;99278.59;5052543;28;20075;-56
2023/06/02 02:51:06;;;;;;;9.80;2.42;;;;;;;17.14;41.28;99286.41;5052312;28;20037;-58
2023/06/02 02:53:32;;;;;;;4.50;2.38;;;;;;;17.18;41.40;99303.97;5053294;28;20029;-56
2023/06/02 02:55:58;;;;;;;7.70;2.35;;;;;;;17.18;41.36;99292.31;5051720;28;20033;-53
2023/06/02 02:58:24;;;;;;;10.70;2.35;;;;;;;17.20;41.67;99295.69;5051591;28;20033;-57
2023/06/02 03:00:50;;;;;;;6.78;2.67;;;;;;;17.25;41.23;99295.16;5051271;28;20043;-52
2023/06/02 03:03:16;;;;;;;7.00;2.50;;;;;;;17.36;41.20;99300.97;5034638;28;20387;-52
2023/06/02 03:05:42;;;;;;;4.22;2.45;;;;;;;17.48;41.03;99278.88;5051919;28;20039;-54
2023/06/02 03:08:09;;;;;;;4.85;2.10;;;;;;;17.81;40.71;99302.94;5051888;28;20036;-57
2023/06/02 03:10:39;;;;;;;9.23;2.75;;;;;;;18.30;39.25;99309.75;5052479;28;20025;-55
2023/06/02 03:13:04;;;;;;;8.02;2.15;;;;;;;18.61;38.56;99308.69;5052620;28;20121;-53
2023/06/02 03:15:30;;;;;;;9.13;2.60;;;;;;;18.82;38.18;99303.53;5050858;28;20108;-53
2023/06/02 03:17:58;;;;;;;3.30;2.13;;;;;;;19.02;37.71;99306.47;5051707;28;20060;-57
2023/06/02 03:20:25;;;;;;;6.10;2.45;;;;;;;19.11;36.94;99301.78;5051403;28;20029;-56
2023/06/02 03:22:51;;;;;;;11.82;2.42;;;;;;;19.20;36.94;99311.47;5051708;28;20064;-54
2023/06/02 03:25:21;;;;;;;8.30;2.42;;;;;;;19.28;36.54;99297.75;5051541;28;20037;-56
2023/06/02 03:27:48;;;;;;;9.45;2.72;;;;;;;19.51;36.27;99323.88;5051727;28;20374;-53
2023/06/02 03:30:13;;;;;;;5.00;2.35;;;;;;;19.49;35.17;99277.06;5051494;28;20025;-52
2023/06/02 03:32:39;;;;;;;5.43;2.45;;;;;;;19.78;34.96;99305.09;5051492;28;20467;-58
2023/06/02 03:35:05;;;;;;;11.52;2.78;;;;;;;19.91;34.75;99302.50;5051810;28;20071;-54
2023/06/02 03:37:31;;;;;;;7.45;2.90;;;;;;;20.00;35.05;99296.91;5051381;28;20033;-54
2023/06/02 03:39:56;;;;;;;6.78;2.58;;;;;;;20.03;34.82;99299.25;5051967;28;20029;-58
2023/06/02 03:42:22;;;;;;;5.63;2.33;;;;;;;20.00;34.76;99294.19;5051746;28;20438;-53
2023/06/02 03:44:47;;;;;;;5.60;2.75;;;;;;;19.94;34.58;99284.97;5051339;28;20064;-53
2023/06/02 03:47:13;;;;;;;5.80;2.30;;;;;;;19.81;34.75;99274.81;5052162;28;20029;-55
2023/06/02 03:49:38;;;;;;;10.23;2.30;;;;;;;19.70;35.01;99302.50;5051621;28;20118;-56
2023/06/02 03:52:04;;;;;;;7.47;2.88;;;;;;;19.41;35.09;99288.06;5051759;28;20107;-55
2023/06/02 03:54:30;;;;;;;6.00;2.10;;;;;;;19.38;35.68;99318.31;5051175;28;20099;-56
2023/06/02 03:56:55;;;;;;;7.72;2.50;;;;;;;19.15;35.22;99301.19;5051039;28;20033;-60
2023/06/02 03:59:21;;;;;;;4.38;1.90;;;;;;;18.91;36.09;99297.75;5032628;28;20357;-56
2023/06/02 04:01:47;;;;;;;4.00;2.00;;;;;;;18.75;36.28;99289.88;5050546;28;20082;-59
2023/06/02 04:04:12;;;;;;;7.93;2.67;;;;;;;18.51;36.31;99284.56;5051192;28;20037;-52
2023/06/02 04:06:40;;;;;;;5.55;2.30;;;;;;;18.38;36.88;99308.81;5050811;28;20036;-54
2023/06/02 04:09:07;;;;;;;10.30;2.20;;;;;;;18.01;37.56;99278.03;5051461;28;20059;-51
2023/06/02 04:11:32;;;;;;;5.32;2.25;;;;;;;18.05;37.88;99304.59;5050567;28;20025;-56
2023/06/02 04:13:58;;;;;;;5.82;2.13;;;;;;;17.99;38.44;99280.09;5050175;28;20358;-55
2023/06/02 04:16:23;;;;;;;6.40;2.45;;;;;;;17.89;38.64;99273.09;5051857;28;20033;-57
2023/06/02 04:18:49;;;;;;;6.55;2.22;;;;;;;17.76;39.30;99256.63;5029133;28;20073;-56
2023/06/02 04:21:15;;;;;;;8.10;2.47;;;;;;;17.49;39.70;99259.75;5025063;28;20038;-53
2023/06/02 04:23:40;;;;;;;10.55;3.22;;;;;;;17.28;41.15;99230.66;5029538;28;20036;-58
2023/06/02 04:26:06;;;;;;;8.43;3.08;;;;;;;17.47;41.34;99259.06;5016118;28;20041;-57
2023/06/02 04:28:31;;;;;;;3.40;2.15;;;;;;;17.52;40.77;99285.59;5013237;28;20441;-54
2023/06/02 04:30:59;;;;;;;10.75;3.28;;;;;;;17.53;40.32;99284.56;5029966;28;20053;-58
2023/06/02 04:33:25;;;;;;;5.22;2.33;;;;;;;17.48;39.89;99289.69;5025727;28;20361;-59
2023/06/02 04:35:50;;;;;;;7.32;2.80;;;;;;;17.41;40.68;99299.59;5004240;28;20037;-55
2023/06/02 04:38:16;;;;;;;6.63;2.95;;;;;;;17.42;43.22;99282.31;5018130;28;20120;-54
2023/06/02 04:40:42;;;;;;;11.13;2.50;;;;;;;17.35;44.02;99255.97;5018695;28;20061;-56
2023/06/02 04:43:08;;;;;;;10.75;2.55;;;;;;;17.41;44.67;99280.63;5016131;28;20077;-51
2023/06/02 04:45:34;;;;;;;9.75;3.25;;;;;;;17.41;45.83;99269.81;5027251;28;20060;-56
2023/06/02 04:48:01;;;;;;;8.05;3.63;;;;;;;17.47;48.23;99285.31;5019154;28;20029;-53
2023/06/02 04:50:27;;;;;;;8.13;2.90;;;;;;;17.51;46.41;99278.50;5019252;28;20045;-56
2023/06/02 04:52:53;;;;;;;9.45;2.63;;;;;;;17.54;45.43;99272.72;5021929;28;20373;-57
2023/06/02 04:55:19;;;;;;;9.10;3.50;;;;;;;17.52;43.87;99277.47;5024034;28;20038;-58
2023/06/02 04:57:46;;;;;;;6.35;2.58;;;;;;;17.42;42.95;99257.97;5028420;28;20085;-56
2023/06/02 05:00:13;;;;;;;10.55;4.10;;;;;;;17.56;43.08;99286.09;5026463;28;20030;-60
2023/06/02 05:02:38;;;;;;;7.15;3.03;;;;;;;17.62;42.42;99269.09;5032735;28;20646;-51
2023/06/02 05:05:05;;;;;;;7.93;3.22;;;;;;;17.70;43.56;99270.91;5027189;28;20041;-55
2023/06/02 05:07:31;;;;;;;8.65;3.25;;;;;;;17.81;44.27;99266.91;5034261;28;20116;-55
2023/06/02 05:09:56;;;;;;;7.30;3.33;;;;;;;18.05;42.01;99290.19;5029521;28;20109;-53
2023/06/02 05:12:22;;;;;;;7.55;3.45;;;;;;;18.06;41.73;99253.94;5016882;28;20029;-57
2023/06/02 05:14:48;;;;;;;7.25;2.92;;;;;;;18.41;41.77;99285.88;5015071;28;20088;-54
2023/06/02 05:17:21;;;;;;;7.65;3.72;;;;;;;18.66;40.59;99283.72;5013393;28;20037;-61
2023/06/02 05:19:47;;;;;;;8.63;3.50;;;;;;;18.69;40.22;99275.19;5050180;28;20049;-56
2023/06/02 05:22:13;;;;;;;8.15;3.92;;;;;;;18.80;40.43;99280.13;5053292;28;20055;-57
2023/06/02 05:24:39;;;;;;;10.43;3.22;;;;;;;18.94;39.51;99269.44;5035558;28;20033;-56
2023/06/02 05:27:05;;;;;;;6.45;3.63;;;;;;;19.23;39.29;99267.66;5053252;28;20059;-55
2023/06/02 05:29:30;;;;;;;11.13;3.53;;;;;;;19.58;39.48;99264.19;5052325;28;20040;-53
2023/06/02 05:31:56;;;;;;;7.18;3.70;;;;;;;20.12;37.58;99264.59;5053230;28;20029;-54
2023/06/02 05:34:21;;;;;;;10.15;4.40;;;;;;;20.93;35.96;99265.78;5049538;28;20051;-55
2023/06/02 05:36:47;;;;;;;12.70;3.58;;;;;;;22.18;33.34;99256.16;5054671;28;20060;-55
2023/06/02 05:39:12;;;;;;;9.88;3.40;;;;;;;24.44;30.20;99254.13;5054426;28;20360;-57
2023/06/02 05:41:38;;;;;;;8.38;3.65;;;;;;;25.91;27.25;99262.09;5053532;28;20405;-57
2023/06/02 05:44:03;;;;;;;9.98;3.55;;;;;;;26.56;26.75;99255.81;5053964;28;20464;-57
2023/06/02 05:46:29;;;;;;;7.60;3.80;;;;;;;26.81;25.83;99252.72;5054420;28;20127;-57
2023/06/02 05:48:55;;;;;;;9.98;3.65;;;;;;;27.03;25.59;99250.16;5054420;28;20099;-58
2023/06/02 05:51:20;;;;;;;10.00;4.25;;;;;;;27.31;25.26;99256.69;5053797;28;20054;-55
2023/06/02 05:53:49;;;;;;;5.63;3.25;;;;;;;26.92;25.31;99257.38;5052841;28;20036;-67
2023/06/02 05:56:16;;;;;;;9.13;3.60;;;;;;;26.41;26.26;99257.16;5053588;28;20021;-58
2023/06/02 05:58:42;;;;;;;8.48;4.20;;;;;;;26.01;26.55;99257.91;5053658;28;20392;-55
2023/06/02 06:01:09;;;;;;;12.15;4.13;;;;;;;25.74;27.33;99229.06;5053869;28;20037;-56
2023/06/02 06:03:35;;;;;;;11.30;4.22;;;;;;;25.93;26.49;99256.38;5053500;28;20478;-57
2023/06/02 06:06:01;;;;;;;8.27;3.53;;;;;;;26.51;25.68;99248.28;5052694;28;20502;-59
2023/06/02 06:08:27;;;;;;;7.28;3.85;;;;;;;28.53;23.32;99250.78;5053602;28;20033;-55
2023/06/02 06:10:53;;;;;;;13.82;4.35;;;;;;;31.64;19.84;99268.09;5053725;28;20033;-53
2023/06/02 06:13:19;;;;;;;8.43;4.57;;;;;;;33.43;17.99;99257.69;5053404;28;20355;-55
2023/06/02 06:15:47;;;;;;;12.07;4.75;;;;;;;34.70;16.53;99257.69;5054059;28;20120;-56
2023/06/02 06:18:13;;;;;;;14.45;4.45;;;;;;;35.85;15.41;99252.00;5053647;28;20049;-55
2023/06/02 06:20:41;;;;;;;11.05;4.40;;;;;;;37.04;14.27;99257.97;5053849;28;20047;-57
2023/06/02 06:23:07;;;;;;;7.78;3.72;;;;;;;37.47;13.11;99258.59;5053465;28;20393;-53
2023/06/02 06:25:32;;;;;;;16.42;4.00;;;;;;;38.34;12.61;99255.44;5053395;28;20033;-57
2023/06/02 06:27:58;;;;;;;10.02;3.70;;;;;;;39.90;12.03;99247.69;5053199;28;20108;-58
2023/06/02 06:30:24;;;;;;;12.25;3.80;;;;;;;41.31;10.68;99256.06;5053056;28;20071;-59
2023/06/02 06:32:49;;;;;;;11.02;3.90;;;;;;;42.14;10.02;99257.34;5035720;28;20024;-57
2023/06/02 06:35:15;;;;;;;6.13;3.55;;;;;;;42.91;9.19;99258.53;5053768;28;20033;-55
2023/06/02 06:37:41;;;;;;;7.57;3.35;;;;;;;43.66;8.83;99239.31;5053202;28;20064;-56
2023/06/02 06:40:06;;;;;;;14.07;3.33;;;;;;;44.26;8.35;99241.25;5052858;28;20032;-55
2023/06/02 06:42:32;;;;;;;10.98;3.53;;;;;;;43.96;9.02;99240.88;5052692;28;20433;-51
2023/06/02 06:44:57;;;;;;;9.65;3.70;;;;;;;43.92;8.36;99237.16;5053318;28;20084;-55
2023/06/02 06:47:23;;;;;;;5.72;3.40;;;;;;;44.35;8.20;99229.75;5053035;28;20330;-56
2023/06/02 06:49:51;;;;;;;9.68;3.35;;;;;;;44.62;7.66;99207.41;5052658;28;20082;-64
2023/06/02 06:52:17;;;;;;;7.03;3.08;;;;;;;45.50;7.52;99238.22;5053075;28;20468;-58
2023/06/02 06:54:42;;;;;;;8.60;2.90;;;;;;;45.67;7.00;99225.59;5053384;28;20021;-57
2023/06/02 06:57:09;;;;;;;7.93;2.78;;;;;;;45.99;7.14;99231.84;5018592;28;20029;-55
2023/06/02 06:59:35;;;;;;;9.75;2.92;;;;;;;46.64;6.40;99223.53;5053024;28;20025;-56
2023/06/02 07:02:00;;;;;;;7.72;2.70;;;;;;;45.57;7.19;99210.09;5053230;28;20305;-57
2023/06/02 07:04:27;;;;;;;4.72;2.63;;;;;;;43.02;8.34;99231.53;5052737;28;20028;-55
2023/06/02 07:06:54;;;;;;;9.85;2.75;;;;;;;40.43;9.57;99227.84;5034873;28;20124;-55
2023/06/02 07:09:20;;;;;;;7.38;2.88;;;;;;;40.03;10.29;99217.81;5052549;28;20095;-54
2023/06/02 07:11:45;;;;;;;9.95;3.38;;;;;;;41.76;9.18;99217.09;5052867;28;20441;-57
2023/06/02 07:14:11;;;;;;;9.15;3.22;;;;;;;43.55;8.14;99210.84;5047228;28;20104;-55
2023/06/02 07:16:36;;;;;;;10.77;3.03;;;;;;;44.39;7.91;99199.63;5050959;28;20071;-57
2023/06/02 07:19:02;;;;;;;7.13;3.40;;;;;;;44.72;7.12;99218.09;5046404;28;20461;-63
2023/06/02 07:21:28;;;;;;;4.95;3.00;;;;;;;43.96;7.54;99199.41;5034190;28;20051;-62
2023/06/02 07:23:53;;;;;;;8.55;3.00;;;;;;;43.74;7.99;99212.97;5052455;28;20025;-62
2023/06/02 07:26:19;;;;;;;10.27;2.88;;;;;;;43.33;8.34;99205.81;5034837;28;20029;-61
2023/06/02 07:28:44;;;;;;;7.43;2.80;;;;;;;42.80;8.87;99195.47;5051953;28;20047;-63
2023/06/02 07:31:10;;;;;;;12.65;3.45;;;;;;;41.67;8.90;99186.31;5034796;28;20033;-62
2023/06/02 07:33:35;;;;;;;16.65;3.35;;;;;;;42.11;9.03;99187.75;5034690;28;20082;-62
2023/06/02 07:36:01;;;;;;;10.05;3.47;;;;;;;43.29;8.45;99192.47;5052444;28;20036;-61
2023/06/02 07:38:26;;;;;;;11.70;3.70;;;;;;;43.81;8.28;99186.16;5052269;28;20025;-62
2023/06/02 07:40:52;;;;;;;8.02;3.42;;;;;;;45.17;7.24;99179.06;5044289;28;20040;-64
2023/06/02 07:43:17;;;;;;;13.38;3.72;;;;;;;46.26;6.93;99148.97;5032677;28;20461;-62
2023/06/02 07:45:43;;;;;;;8.68;4.03;;;;;;;46.13;6.51;99163.38;5049082;28;20029;-61
2023/06/02 07:48:08;;;;;;;7.65;3.47;;;;;;;46.64;6.29;99172.56;5051848;28;20411;-61
2023/06/02 07:50:34;;;;;;;5.72;3.33;;;;;;;47.46;6.10;99156.84;5051738;28;20033;-72
2023/06/02 07:52:59;;;;;;;10.60;3.42;;;;;;;47.80;6.07;99172.94;5051612;28;20116;-62
2023/06/02 07:55:25;;;;;;;16.90;4.07;;;;;;;47.83;5.62;99170.16;5051869;28;20033;-62
2023/06/02 07:57:52;;;;;;;12.85;3.95;;;;;;;47.75;6.21;99179.81;5034438;28;20033;-81
2023/06/02 08:00:19;;;;;;;11.20;4.53;;;;;;;47.90;6.01;99168.56;5030626;28;20088;-61
2023/06/02 08:02:49;;;;;;;9.00;3.88;;;;;;;47.83;6.13;99170.16;5033764;28;20105;-62
2023/06/02 08:05:18;;;;;;;7.03;3.60;;;;;;;47.80;5.97;99167.28;5054629;28;20453;-62
2023/06/02 08:07:44;;;;;;;8.32;3.80;;;;;;;47.33;5.79;99178.22;5052376;28;20112;-67
2023/06/02 08:10:11;;;;;;;7.57;3.08;;;;;;;46.65;6.43;99168.53;5035085;28;20090;-61
2023/06/02 08:12:37;;;;;;;9.73;3.15;;;;;;;46.06;6.83;99156.75;5055538;28;20033;-62
2023/06/02 08:15:03;;;;;;;7.72;3.10;;;;;;;45.59;6.83;99154.81;5037903;28;20029;-62
2023/06/02 08:17:31;;;;;;;7.07;3.05;;;;;;;44.74;7.17;99153.63;5054901;28;20154;-63
2023/06/02 08:19:58;;;;;;;9.30;3.33;;;;;;;42.62;8.23;99156.34;5054984;28;20037;-64
2023/06/02 08:22:26;;;;;;;5.43;2.90;;;;;;;39.36;10.72;99152.94;5055262;28;20075;-64
2023/06/02 08:24:53;;;;;;;12.50;3.83;;;;;;;36.65;12.39;99136.69;5055707;28;20036;-66
2023/06/02 08:27:20;;;;;;;8.98;3.15;;;;;;;34.76;14.15;99138.91;5055300;28;20065;-63
2023/06/02 08:29:46;;;;;;;11.93;3.45;;;;;;;33.17;16.08;99146.94;5054596;28;20036;-62
2023/06/02 08:32:12;;;;;;;6.88;3.00;;;;;;;31.84;17.01;99136.34;5055349;28;20036;-62
2023/06/02 08:34:41;;;;;;;5.75;3.40;;;;;;;30.73;18.60;99132.28;5054027;28;20033;-62
2023/06/02 08:37:16;;;;;;;9.40;3.28;;;;;;;29.70;19.48;99149.31;5054323;28;20425;-63
2023/06/02 08:39:46;;;;;;;6.30;2.92;;;;;;;29.18;19.87;99159.97;5054891;28;20094;-62
2023/06/02 08:42:12;;;;;;;9.55;3.20;;;;;;;28.05;21.47;99127.41;5055004;28;20044;-64
2023/06/02 08:44:43;;;;;;;8.43;3.58;;;;;;;27.72;21.94;99131.94;5054186;28;20071;-62
2023/06/02 08:47:11;;;;;;;9.98;3.45;;;;;;;27.07;23.21;99133.19;5054472;28;20102;-63
2023/06/02 08:49:43;;;;;;;8.82;3.05;;;;;;;26.51;24.63;99139.31;5037668;28;20396;-63
2023/06/02 08:52:21;;;;;;;12.75;3.72;;;;;;;25.99;24.14;99088.13;5052272;28;20029;-66
2023/06/02 08:54:47;;;;;;;14.10;4.00;;;;;;;25.94;25.31;99137.38;5046319;28;20083;-64
2023/06/02 08:57:16;;;;;;;8.18;3.42;;;;;;;25.68;26.09;99089.38;5054610;28;20033;-63
2023/06/02 08:59:46;;;;;;;9.90;3.80;;;;;;;25.91;25.69;99114.00;5054283;28;20037;-65
2023/06/02 09:02:13;;;;;;;10.30;4.05;;;;;;;25.91;26.20;99124.97;5053090;28;20144;-65
2023/06/02 09:04:39;;;;;;;8.88;4.13;;;;;;;25.77;26.41;99120.81;5052751;28;20505;-63
2023/06/02 09:07:19;;;;;;;11.90;4.03;;;;;;;25.60;26.91;99107.88;5054149;28;20111;-61
2023/06/02 09:09:55;;;;;;;13.10;3.95;;;;;;;25.69;26.45;99102.88;5037172;28;20033;-63
2023/06/02 09:12:21;;;;;;;10.65;4.47;;;;;;;25.63;27.63;99101.06;5053928;28;20036;-64
2023/06/02 09:15:05;;;;;;;17.30;4.93;;;;;;;25.72;27.13;99104.28;5035943;28;20033;-63
2023/06/02 09:17:31;;;;;;;14.00;4.28;;;;;;;25.77;27.15;99107.13;5035995;28;20045;-74
2023/06/02 09:19:58;;;;;;;13.45;4.18;;;;;;;25.80;27.64;99093.78;5054761;28;20037;-63
2023/06/02 09:22:25;;;;;;;8.48;3.78;;;;;;;25.83;27.45;99100.69;5053820;28;20032;-62
2023/06/02 09:24:53;;;;;;;12.63;4.03;;;;;;;25.87;27.21;99101.00;5054357;28;20032;-61
2023/06/02 09:27:19;;;;;;;8.90;4.10;;;;;;;25.88;27.81;99081.59;5054598;28;20028;-63
2023/06/02 09:29:46;;;;;;;9.23;3.70;;;;;;;25.97;27.42;99079.28;5053672;28;20071;-63
2023/06/02 09:32:17;;;;;;;9.30;4.28;;;;;;;25.95;27.33;99081.47;5053157;28;20398;-63
2023/06/02 09:34:45;;;;;;;13.13;4.00;;;;;;;25.71;27.75;99053.25;5053221;28;20271;-67
2023/06/02 09:37:15;;;;;;;11.10;4.40;;;;;;;25.98;27.07;99082.84;5049022;28;20032;-63
2023/06/02 09:39:48;;;;;;;7.05;3.55;;;;;;;26.09;27.27;99065.53;5053407;28;20357;-63
2023/06/02 09:42:15;;;;;;;9.68;3.95;;;;;;;26.15;27.22;99063.69;5046013;28;20052;-63
2023/06/02 09:45:01;;;;;;;8.60;3.92;;;;;;;26.26;27.04;99056.53;5052349;28;20440;-64
2023/06/02 09:47:26;;;;;;;12.50;3.78;;;;;;;26.22;27.36;99061.69;5049386;28;20318;-64
2023/06/02 09:49:52;;;;;;;8.55;4.18;;;;;;;25.97;27.76;99054.63;5050478;28;20029;-66
2023/06/02 09:52:18;;;;;;;5.72;3.88;;;;;;;25.84;28.42;99042.03;5035692;28;20024;-65
2023/06/02 09:54:45;;;;;;;9.07;3.80;;;;;;;25.67;28.63;99043.88;5052983;28;20190;-65
2023/06/02 09:57:15;;;;;;;7.85;3.90;;;;;;;25.68;28.49;99027.16;5036206;28;20029;-64
2023/06/02 09:59:42;;;;;;;14.60;4.00;;;;;;;25.80;28.76;99033.44;5052782;28;20406;-63
2023/06/02 10:02:11;;;;;;;10.43;4.30;;;;;;;25.91;28.15;99020.78;5035374;28;20037;-64
2023/06/02 10:04:37;;;;;;;10.13;4.10;;;;;;;25.98;28.61;99019.78;5053872;28;20025;-66
2023/06/02 10:07:27;;;;;;;9.45;4.40;;;;;;;26.21;27.73;99024.38;5053586;28;20037;-64
2023/06/02 10:10:11;;;;;;;11.00;5.20;;;;;;;26.27;28.14;99022.53;5054325;28;20111;-65
2023/06/02 10:12:49;;;;;;;9.73;4.40;;;;;;;26.19;27.90;99026.53;5051021;28;20487;-64
2023/06/02 10:15:26;;;;;;;8.05;4.32;;;;;;;26.10;27.45;99001.38;5051438;28;20925;-65
2023/06/02 10:18:10;;;;;;;9.13;4.40;;;;;;;26.16;27.29;99003.16;5053092;28;20413;-68
2023/06/02 10:21:11;;;;;;;9.93;4.18;;;;;;;26.55;26.95;99013.41;5053172;28;20058;-67
2023/06/02 10:24:04;;;;;;;11.15;4.28;;;;;;;26.85;26.45;99000.44;5036089;28;20041;-65
2023/06/02 10:26:32;;;;;;;12.38;4.45;;;;;;;26.81;26.45;98991.84;5052496;28;20040;-67
2023/06/02 10:29:02;;;;;;;12.75;3.95;;;;;;;26.74;26.67;98988.44;5053109;28;20154;-66
2023/06/02 10:31:32;;;;;;;11.43;4.38;;;;;;;26.82;26.33;98984.44;5052154;28;20025;-64
2023/06/02 10:34:00;;;;;;;15.15;4.72;;;;;;;26.89;26.36;98979.63;5034106;28;20025;-70
2023/06/02 10:36:28;;;;;;;5.97;4.28;;;;;;;26.86;26.24;98980.97;5052311;28;20118;-66
2023/06/02 10:38:53;;;;;;;13.10;4.10;;;;;;;26.87;25.27;98976.31;5053548;28;20043;-66
2023/06/02 10:41:21;;;;;;;8.18;3.40;;;;;;;26.84;25.21;98977.59;5051242;28;20029;-67
2023/06/02 10:44:24;;;;;;;9.43;3.92;;;;;;;26.93;24.87;98975.28;5052355;28;20498;-72
2023/06/02 10:47:17;;;;;;;8.65;3.85;;;;;;;27.04;24.73;98968.88;5034219;28;20029;-71
2023/06/02 10:49:52;;;;;;;7.55;3.47;;;;;;;27.10;24.01;98968.94;5052660;28;20036;-70
2023/06/02 10:52:18;;;;;;;9.82;3.67;;;;;;;27.36;23.59;98962.69;5034839;28;20426;-66
2023/06/02 10:54:43;;;;;;;11.30;3.67;;;;;;;27.74;23.27;98960.09;5051310;28;20020;-59
2023/06/02 10:57:09;;;;;;;7.93;3.60;;;;;;;28.03;22.13;98978.28;5052413;28;20100;-54
2023/06/02 10:59:36;;;;;;;8.05;3.67;;;;;;;28.10;21.78;98959.63;5052488;28;20037;-55
2023/06/02 11:02:03;;;;;;;6.95;3.58;;;;;;;28.03;22.09;98961.78;5045171;28;20021;-57
2023/06/02 11:04:38;;;;;;;7.97;3.55;;;;;;;27.99;21.98;98957.88;5052770;28;20029;-52
2023/06/02 11:07:22;;;;;;;6.22;3.50;;;;;;;28.01;22.24;98952.94;5052902;28;20021;-54
2023/06/02 11:09:50;;;;;;;8.70;3.50;;;;;;;28.03;22.49;98950.75;5052083;28;20045;-58
2023/06/02 11:12:16;;;;;;;9.05;3.63;;;;;;;28.29;21.83;98956.53;5035009;28;20431;-55
2023/06/02 11:15:05;;;;;;;6.40;3.17;;;;;;;28.47;21.41;98956.13;5052674;28;20064;-63
2023/06/02 11:17:34;;;;;;;7.18;3.70;;;;;;;28.12;21.94;98940.94;5019785;28;20041;-63
2023/06/02 11:20:07;;;;;;;7.53;3.78;;;;;;;27.97;21.65;98943.53;5032375;28;20044;-65
2023/06/02 11:22:34;;;;;;;5.72;3.15;;;;;;;27.87;21.38;98939.59;5032596;28;20048;-62
2023/06/02 11:25:01;;;;;;;6.30;3.22;;;;;;;27.75;21.37;98936.19;5046751;28;20033;-62
2023/06/02 11:27:44;;;;;;;4.88;3.10;;;;;;;27.75;21.45;98931.50;5052249;28;20064;-64
2023/06/02 11:30:14;;;;;;;6.97;3.38;;;;;;;27.74;21.31;98934.53;5049315;28;20041;-65
2023/06/02 11:32:40;;;;;;;7.30;3.55;;;;;;;27.85;21.29;98935.44;5047197;28;20032;-63
2023/06/02 11:35:08;;;;;;;6.68;3.42;;;;;;;28.10;20.96;98920.28;5052768;28;20063;-66